• Join FlightAware (Why Join?)
  • Login
  • US Flag 
10:47AM EDT


 

Airport Tracker/Info


-or-


 

Live Flight TrackerFlight Track Log ✈ N638SF ✈ 30-Apr-2013 ✈ KLUL - KJAX

Flight Track Log - Related Links

Times and Time Zones

All times are in EDT time to prevent confusion due to time zone crossing. See the N638SF flight status page for this flight to view local times or setup timezone preferences in your user account.

Time Position Orientation Groundspeed Altitude Reporting Facility
EDT Latitude Longitude Course Direction KTS MPH feet Rate Location/Type
09:48AM 31.6450 -89.1033 97° East 258 297 2,900  Level Houston Center
09:48AM 31.6422 -89.0764 97° East 259 298 3,400 2,400 Climbing Memphis Center
09:49AM 31.6289 -88.9983 101° East 274 315 5,900 2,940 Climbing Memphis Center
09:50AM 31.6228 -88.9336 96° East 266 306 8,700 3,240 Climbing Houston Center
09:51AM 31.6053 -88.8172 100° East 295 339 11,900 2,040 Climbing Houston Center
09:52AM 31.5869 -88.7056 101° East 334 384 13,000 480 Climbing Houston Center
09:53AM 31.5689 -88.5789 99° East 380 437 13,000  Level Houston Center
09:54AM 31.5622 -88.5286 99° East 387 445 13,000 1,080 Level Houston Center
09:55AM 31.5433 -88.4056 100° East 385 443 14,600 1,440 Climbing Houston Center
09:56AM 31.5242 -88.2836 100° East 380 437 16,000 660 Climbing Houston Center
09:57AM 31.5042 -88.1553 100° East 395 455 16,000 60 Level Houston Center
09:58AM 31.4711 -88.0344 108° East 396 456 16,200 1,200 Climbing Houston Center
09:59AM 31.4061 -87.9336 127° Southeast 386 444 18,600 2,280 Climbing Houston Center
10:00AM 31.3322 -87.8097 125° Southeast 385 443 21,000 2,160 Climbing Houston Center
10:01AM 31.2683 -87.7025 125° Southeast 396 456 23,100 1,740 Climbing Houston Center
10:02AM 31.2211 -87.5817 115° Southeast 414 476 24,700 1,500 Climbing Houston Center
10:03AM 31.2056 -87.4431 97° East 427 491 26,300 1,500 Climbing Houston Center
10:04AM 31.1878 -87.3017 98° East 438 504 27,900 1,680 Climbing Houston Center
10:04AM 31.1817 -87.2439 97° East 431 496 28,500 4,020 Climbing Jacksonville Center
10:05AM 31.1636 -87.0997 98° East 441 507 33,000 1,440 Climbing Jacksonville Center
10:06AM 31.1428 -86.9725 101° East 447 514 31,400 -60 Descending Jacksonville Center
10:07AM 31.1244 -86.8239 98° East 453 521 32,900 780 Climbing Jacksonville Center
10:08AM 31.1022 -86.6628 99° East 471 542 33,000  Climbing Jacksonville Center
10:09AM 31.0819 -86.4969 98° East 495 570 33,000  Level Jacksonville Center
10:10AM 31.0594 -86.3289 99° East 513 590 33,000  Level Jacksonville Center
10:11AM 31.0367 -86.1583 99° East 523 602 33,000  Level Jacksonville Center
10:12AM 31.0139 -85.9928 99° East 523 602 33,000  Level Jacksonville Center
10:13AM 30.9844 -85.8247 102° East 523 602 33,000  Level Jacksonville Center
10:14AM 30.9525 -85.6589 103° East 518 596 33,000  Level Jacksonville Center
10:15AM 30.9225 -85.4983 102° East 513 590 33,000  Level Jacksonville Center
10:16AM 30.8925 -85.3328 102° East 513 590 33,000  Level Jacksonville Center
10:17AM 30.8600 -85.1697 103° East 508 585 33,000  Level Jacksonville Center
10:18AM 30.8314 -85.0094 102° East 508 585 33,000  Level Jacksonville Center
10:19AM 30.7986 -84.8467 103° East 508 585 33,000  Level Jacksonville Center
10:20AM 30.7675 -84.6864 103° East 508 585 33,000  Level Jacksonville Center
10:21AM 30.7364 -84.5239 103° East 508 585 33,000  Level Jacksonville Center
10:22AM 30.7008 -84.3494 103° East 508 585 33,000 -120 Level Jacksonville Center
10:23AM 30.6692 -84.1872 103° East 508 585 32,800 -900 Descending Jacksonville Center
10:24AM 30.6353 -84.0225 103° East 508 585 31,300 -1,680 Descending Jacksonville Center
10:25AM 30.6031 -83.8653 103° East 508 585 29,500 -2,100 Descending Jacksonville Center
10:26AM 30.5731 -83.7056 102° East 508 585 27,100 -2,400 Descending Jacksonville Center
10:27AM 30.5444 -83.5656 103° East 508 585 24,700 -1,560 Descending Jacksonville Center
10:28AM 30.5286 -83.4039 96° East 483 556 24,000 -1,140 Descending Jacksonville Center
10:29AM 30.5292 -83.2592 90° East 460 529 22,500 -2,040 Descending Jacksonville Center
10:30AM 30.5253 -83.1047 92° East 454 522 20,000 -1,800 Descending Jacksonville Center
10:31AM 30.5192 -82.9600 93° East 459 528 19,000 -900 Descending Jacksonville Center
10:32AM 30.5150 -82.8203 92° East 449 517 18,200 -1,500 Descending Jacksonville Center
10:33AM 30.5106 -82.6803 92° East 439 505 16,100 -2,040 Descending Jacksonville Center
10:34AM 30.5042 -82.5622 94° East 427 491 14,200 -2,220 Descending Jacksonville Center
10:35AM 30.5186 -82.5117 72° East 407 468 13,100 -2,340 Descending Jacksonville Center
10:35AM 30.5414 -82.4439 69° East 396 456 11,900 -1,920 Descending Jacksonville Center
10:36AM 30.5558 -82.3933 72° East 382 440 11,200 -1,020 Descending Jacksonville Center
10:36AM 30.5700 -82.3328 75° East 374 430 10,900 -1,020 Descending Jacksonville Center
10:37AM 30.5825 -82.2844 73° East 291 335 10,200 -1,920 Descending Jacksonville Center
10:37AM 30.5947 -82.2411 72° East 334 384 9,000 -2,460 Descending Jacksonville Center
10:38AM 30.6050 -82.1928 76° East 289 333 7,700 -2,400 Descending Jacksonville Center
10:38AM 30.6150 -82.1492 75° East 303 349 6,600 -2,280 Descending Jacksonville Center
10:39AM 30.6275 -82.1031 73° East 290 334 5,400 -2,220 Descending Jacksonville Center
10:39AM 30.6314 -82.0619 84° East 281 323 4,400 -1,920 Descending Jacksonville Center
10:40AM 30.6247 -82.0186 100° East 262 302 3,500 -1,740 Descending Jacksonville Center
10:40AM 30.6161 -81.9803 105° East 269 310 2,700 -1,380 Descending Jacksonville Center
10:41AM 30.6053 -81.9369 106° East 259 298 2,100 -720 Descending Jacksonville Center
10:41AM 30.6008 -81.9031 99° East 252 290 2,000 -120 Descending Jacksonville Center
10:42AM 30.5964 -81.8619 97° East 201 231 2,000  Level Jacksonville Center
10:42AM 30.5878 -81.8356 111° Southeast 230 265 2,000  Level Jacksonville Center
10:43AM 30.5689 -81.8092 130° Southeast 195 224 2,000 -240 Level Jacksonville Center
10:43AM 30.5561 -81.7903 128° Southeast 198 228 1,800 -540 Descending Jacksonville Center
10:44AM 30.5372 -81.7686 135° Southeast 155 178 1,500 -720 Descending Jacksonville Center
10:44AM 30.5286 -81.7542 125° Southeast 170 196 1,100 -720 Descending Jacksonville Center
10:45AM 30.5139 -81.7375 136° Southeast 124 143 800 -600 Descending Jacksonville Center
10:47AM 30.4941 -81.6879 115° Southeast  Level Estimated
10:54AM 30.4941 -81.6879 311° West  Level Estimated